sensor_id;sensor_type;location;lat;lon;timestamp;P1;durP1;ratioP1;P2;durP2;ratioP2
30036;SDS011;36325;51.512;-0.382;2023-03-20T00:02:06;16.67;;;4.18;;
30036;SDS011;36325;51.512;-0.382;2023-03-20T00:04:37;35.25;;;3.83;;
30036;SDS011;36325;51.512;-0.382;2023-03-20T00:07:04;13.50;;;3.67;;
30036;SDS011;36325;51.512;-0.382;2023-03-20T00:09:36;11.13;;;3.00;;
30036;SDS011;36325;51.512;-0.382;2023-03-20T00:12:03;19.02;;;4.18;;
30036;SDS011;36325;51.512;-0.382;2023-03-20T00:14:31;10.70;;;3.83;;
30036;SDS011;36325;51.512;-0.382;2023-03-20T00:17:00;15.07;;;3.97;;
30036;SDS011;36325;51.512;-0.382;2023-03-20T00:19:28;16.02;;;4.40;;
30036;SDS011;36325;51.512;-0.382;2023-03-20T00:21:56;13.00;;;4.40;;
30036;SDS011;36325;51.512;-0.382;2023-03-20T00:24:24;13.15;;;4.38;;
30036;SDS011;36325;51.512;-0.382;2023-03-20T00:26:51;18.95;;;4.70;;
30036;SDS011;36325;51.512;-0.382;2023-03-20T00:31:52;16.80;;;5.03;;
30036;SDS011;36325;51.512;-0.382;2023-03-20T00:34:21;18.67;;;4.47;;
30036;SDS011;36325;51.512;-0.382;2023-03-20T00:36:52;14.55;;;5.40;;
30036;SDS011;36325;51.512;-0.382;2023-03-20T00:39:20;15.15;;;3.90;;
30036;SDS011;36325;51.512;-0.382;2023-03-20T00:41:50;14.68;;;4.15;;
30036;SDS011;36325;51.512;-0.382;2023-03-20T00:44:23;19.70;;;4.03;;
30036;SDS011;36325;51.512;-0.382;2023-03-20T00:46:56;11.38;;;4.65;;
30036;SDS011;36325;51.512;-0.382;2023-03-20T00:49:35;14.68;;;4.55;;
30036;SDS011;36325;51.512;-0.382;2023-03-20T00:52:05;16.90;;;4.20;;
30036;SDS011;36325;51.512;-0.382;2023-03-20T00:54:32;18.88;;;4.07;;
30036;SDS011;36325;51.512;-0.382;2023-03-20T00:57:00;18.67;;;3.63;;
30036;SDS011;36325;51.512;-0.382;2023-03-20T00:59:32;15.35;;;4.60;;
30036;SDS011;36325;51.512;-0.382;2023-03-20T01:02:03;13.52;;;3.42;;
30036;SDS011;36325;51.512;-0.382;2023-03-20T01:04:38;18.90;;;4.88;;
30036;SDS011;36325;51.512;-0.382;2023-03-20T01:07:09;13.48;;;4.43;;
30036;SDS011;36325;51.512;-0.382;2023-03-20T01:09:40;9.82;;;3.42;;
30036;SDS011;36325;51.512;-0.382;2023-03-20T01:12:09;17.02;;;4.20;;
30036;SDS011;36325;51.512;-0.382;2023-03-20T01:17:16;13.45;;;4.07;;
30036;SDS011;36325;51.512;-0.382;2023-03-20T01:19:48;10.85;;;2.78;;
30036;SDS011;36325;51.512;-0.382;2023-03-20T01:22:16;17.33;;;3.45;;
30036;SDS011;36325;51.512;-0.382;2023-03-20T01:24:44;16.30;;;3.97;;
30036;SDS011;36325;51.512;-0.382;2023-03-20T01:27:14;13.48;;;3.67;;
30036;SDS011;36325;51.512;-0.382;2023-03-20T01:29:43;23.73;;;3.35;;
30036;SDS011;36325;51.512;-0.382;2023-03-20T01:32:15;18.08;;;4.38;;
30036;SDS011;36325;51.512;-0.382;2023-03-20T01:34:47;19.42;;;3.55;;
30036;SDS011;36325;51.512;-0.382;2023-03-20T01:37:22;11.00;;;2.88;;
30036;SDS011;36325;51.512;-0.382;2023-03-20T01:39:52;16.45;;;3.53;;
30036;SDS011;36325;51.512;-0.382;2023-03-20T01:42:20;18.08;;;3.75;;
30036;SDS011;36325;51.512;-0.382;2023-03-20T01:44:48;21.92;;;3.90;;
30036;SDS011;36325;51.512;-0.382;2023-03-20T01:47:17;16.40;;;3.28;;
30036;SDS011;36325;51.512;-0.382;2023-03-20T01:53:15;18.42;;;3.45;;
30036;SDS011;36325;51.512;-0.382;2023-03-20T01:55:52;16.63;;;3.53;;
30036;SDS011;36325;51.512;-0.382;2023-03-20T01:58:33;14.90;;;3.28;;
30036;SDS011;36325;51.512;-0.382;2023-03-20T02:01:04;16.23;;;3.17;;
30036;SDS011;36325;51.512;-0.382;2023-03-20T02:03:36;11.95;;;3.13;;
30036;SDS011;36325;51.512;-0.382;2023-03-20T02:06:14;17.48;;;3.88;;
30036;SDS011;36325;51.512;-0.382;2023-03-20T02:09:01;18.00;;;3.45;;
30036;SDS011;36325;51.512;-0.382;2023-03-20T02:11:37;20.75;;;4.32;;
30036;SDS011;36325;51.512;-0.382;2023-03-20T02:14:06;12.35;;;3.80;;
30036;SDS011;36325;51.512;-0.382;2023-03-20T02:16:46;26.95;;;4.25;;
30036;SDS011;36325;51.512;-0.382;2023-03-20T02:19:30;21.05;;;3.50;;
30036;SDS011;36325;51.512;-0.382;2023-03-20T02:40:42;11.10;;;3.22;;
30036;SDS011;36325;51.512;-0.382;2023-03-20T02:48:45;20.40;;;4.88;;
30036;SDS011;36325;51.512;-0.382;2023-03-20T02:54:21;20.10;;;3.58;;
30036;SDS011;36325;51.512;-0.382;2023-03-20T02:57:27;13.90;;;3.45;;
30036;SDS011;36325;51.512;-0.382;2023-03-20T03:00:04;20.38;;;3.67;;
30036;SDS011;36325;51.512;-0.382;2023-03-20T03:02:52;17.40;;;3.25;;
30036;SDS011;36325;51.512;-0.382;2023-03-20T03:05:43;13.98;;;3.42;;
30036;SDS011;36325;51.512;-0.382;2023-03-20T03:11:00;19.02;;;3.80;;
30036;SDS011;36325;51.512;-0.382;2023-03-20T03:13:36;24.80;;;3.70;;
30036;SDS011;36325;51.512;-0.382;2023-03-20T03:16:09;20.38;;;4.32;;
30036;SDS011;36325;51.512;-0.382;2023-03-20T03:18:48;19.85;;;3.33;;
30036;SDS011;36325;51.512;-0.382;2023-03-20T03:21:23;23.00;;;3.42;;
30036;SDS011;36325;51.512;-0.382;2023-03-20T03:23:52;19.88;;;3.22;;
30036;SDS011;36325;51.512;-0.382;2023-03-20T03:26:21;16.90;;;3.10;;
30036;SDS011;36325;51.512;-0.382;2023-03-20T03:29:05;20.48;;;3.60;;
30036;SDS011;36325;51.512;-0.382;2023-03-20T03:31:43;13.70;;;2.78;;
30036;SDS011;36325;51.512;-0.382;2023-03-20T03:34:11;19.92;;;3.05;;
30036;SDS011;36325;51.512;-0.382;2023-03-20T03:39:19;28.40;;;3.08;;
30036;SDS011;36325;51.512;-0.382;2023-03-20T03:44:54;14.32;;;3.40;;
30036;SDS011;36325;51.512;-0.382;2023-03-20T03:47:31;13.80;;;4.07;;
30036;SDS011;36325;51.512;-0.382;2023-03-20T03:50:11;14.40;;;3.30;;
30036;SDS011;36325;51.512;-0.382;2023-03-20T03:52:44;22.05;;;3.60;;
30036;SDS011;36325;51.512;-0.382;2023-03-20T03:55:18;22.40;;;4.07;;
30036;SDS011;36325;51.512;-0.382;2023-03-20T03:58:09;22.75;;;3.30;;
30036;SDS011;36325;51.512;-0.382;2023-03-20T04:00:44;14.20;;;4.22;;
30036;SDS011;36325;51.512;-0.382;2023-03-20T04:03:21;12.32;;;2.67;;
30036;SDS011;36325;51.512;-0.382;2023-03-20T04:05:54;14.93;;;2.85;;
30036;SDS011;36325;51.512;-0.382;2023-03-20T04:08:25;17.03;;;3.60;;
30036;SDS011;36325;51.512;-0.382;2023-03-20T04:10:58;13.45;;;2.88;;
30036;SDS011;36325;51.512;-0.382;2023-03-20T04:13:25;18.80;;;3.60;;
30036;SDS011;36325;51.512;-0.382;2023-03-20T04:15:52;15.32;;;3.50;;
30036;SDS011;36325;51.512;-0.382;2023-03-20T04:18:20;21.98;;;3.30;;
30036;SDS011;36325;51.512;-0.382;2023-03-20T04:20:47;18.33;;;3.00;;
30036;SDS011;36325;51.512;-0.382;2023-03-20T04:23:15;14.77;;;3.00;;
30036;SDS011;36325;51.512;-0.382;2023-03-20T04:25:43;12.70;;;2.67;;
30036;SDS011;36325;51.512;-0.382;2023-03-20T04:28:10;15.88;;;3.35;;
30036;SDS011;36325;51.512;-0.382;2023-03-20T04:30:43;23.67;;;2.85;;
30036;SDS011;36325;51.512;-0.382;2023-03-20T04:33:20;20.35;;;3.30;;
30036;SDS011;36325;51.512;-0.382;2023-03-20T04:36:07;15.35;;;2.92;;
30036;SDS011;36325;51.512;-0.382;2023-03-20T04:38:35;17.02;;;3.10;;
30036;SDS011;36325;51.512;-0.382;2023-03-20T04:41:03;16.33;;;2.80;;
30036;SDS011;36325;51.512;-0.382;2023-03-20T04:43:31;12.30;;;3.05;;
30036;SDS011;36325;51.512;-0.382;2023-03-20T04:45:58;20.50;;;3.67;;
30036;SDS011;36325;51.512;-0.382;2023-03-20T04:48:26;15.40;;;2.95;;
30036;SDS011;36325;51.512;-0.382;2023-03-20T04:50:54;23.30;;;4.15;;
30036;SDS011;36325;51.512;-0.382;2023-03-20T04:53:38;21.25;;;3.92;;
30036;SDS011;36325;51.512;-0.382;2023-03-20T04:56:06;28.23;;;4.22;;
30036;SDS011;36325;51.512;-0.382;2023-03-20T04:58:34;19.77;;;3.83;;
30036;SDS011;36325;51.512;-0.382;2023-03-20T05:01:02;19.13;;;3.60;;
30036;SDS011;36325;51.512;-0.382;2023-03-20T05:03:29;18.08;;;3.65;;
30036;SDS011;36325;51.512;-0.382;2023-03-20T05:05:58;22.63;;;3.92;;
30036;SDS011;36325;51.512;-0.382;2023-03-20T05:08:25;14.90;;;3.28;;
30036;SDS011;36325;51.512;-0.382;2023-03-20T05:10:58;29.80;;;3.90;;
30036;SDS011;36325;51.512;-0.382;2023-03-20T05:13:44;14.98;;;2.92;;
30036;SDS011;36325;51.512;-0.382;2023-03-20T05:16:49;18.20;;;2.88;;
30036;SDS011;36325;51.512;-0.382;2023-03-20T05:19:44;20.15;;;3.30;;
30036;SDS011;36325;51.512;-0.382;2023-03-20T05:22:37;18.40;;;4.15;;
30036;SDS011;36325;51.512;-0.382;2023-03-20T05:25:23;28.73;;;4.82;;
30036;SDS011;36325;51.512;-0.382;2023-03-20T05:28:07;19.45;;;3.95;;
30036;SDS011;36325;51.512;-0.382;2023-03-20T05:30:57;18.13;;;3.35;;
30036;SDS011;36325;51.512;-0.382;2023-03-20T05:33:44;18.65;;;3.50;;
30036;SDS011;36325;51.512;-0.382;2023-03-20T05:36:23;26.42;;;4.43;;
30036;SDS011;36325;51.512;-0.382;2023-03-20T05:38:50;24.48;;;3.78;;
30036;SDS011;36325;51.512;-0.382;2023-03-20T05:41:40;22.48;;;3.83;;
30036;SDS011;36325;51.512;-0.382;2023-03-20T05:44:22;33.78;;;4.72;;
30036;SDS011;36325;51.512;-0.382;2023-03-20T05:47:09;31.00;;;4.65;;
30036;SDS011;36325;51.512;-0.382;2023-03-20T05:50:03;17.33;;;3.38;;
30036;SDS011;36325;51.512;-0.382;2023-03-20T05:52:51;21.45;;;4.57;;
30036;SDS011;36325;51.512;-0.382;2023-03-20T05:55:41;29.08;;;4.82;;
30036;SDS011;36325;51.512;-0.382;2023-03-20T06:00:56;29.10;;;5.22;;
30036;SDS011;36325;51.512;-0.382;2023-03-20T06:03:43;23.98;;;4.68;;
30036;SDS011;36325;51.512;-0.382;2023-03-20T06:06:15;24.00;;;4.80;;
30036;SDS011;36325;51.512;-0.382;2023-03-20T06:08:47;29.35;;;6.38;;
30036;SDS011;36325;51.512;-0.382;2023-03-20T06:11:15;24.95;;;5.32;;
30036;SDS011;36325;51.512;-0.382;2023-03-20T06:13:42;27.55;;;5.78;;
30036;SDS011;36325;51.512;-0.382;2023-03-20T06:16:10;22.90;;;4.47;;
30036;SDS011;36325;51.512;-0.382;2023-03-20T06:18:37;34.35;;;5.03;;
30036;SDS011;36325;51.512;-0.382;2023-03-20T06:21:07;34.33;;;6.20;;
30036;SDS011;36325;51.512;-0.382;2023-03-20T06:23:38;22.60;;;3.80;;
30036;SDS011;36325;51.512;-0.382;2023-03-20T06:26:07;25.92;;;6.57;;
30036;SDS011;36325;51.512;-0.382;2023-03-20T06:28:47;38.28;;;6.45;;
30036;SDS011;36325;51.512;-0.382;2023-03-20T06:31:16;27.48;;;4.95;;
30036;SDS011;36325;51.512;-0.382;2023-03-20T06:33:43;27.88;;;6.13;;
30036;SDS011;36325;51.512;-0.382;2023-03-20T06:36:11;26.80;;;6.30;;
30036;SDS011;36325;51.512;-0.382;2023-03-20T06:38:38;36.05;;;6.57;;
30036;SDS011;36325;51.512;-0.382;2023-03-20T06:41:11;23.83;;;4.88;;
30036;SDS011;36325;51.512;-0.382;2023-03-20T06:43:57;27.08;;;6.10;;
30036;SDS011;36325;51.512;-0.382;2023-03-20T06:46:30;25.77;;;5.47;;
30036;SDS011;36325;51.512;-0.382;2023-03-20T06:49:00;28.50;;;4.60;;
30036;SDS011;36325;51.512;-0.382;2023-03-20T06:51:27;30.75;;;6.00;;
30036;SDS011;36325;51.512;-0.382;2023-03-20T06:53:55;34.08;;;6.32;;
30036;SDS011;36325;51.512;-0.382;2023-03-20T06:56:25;26.25;;;5.85;;
30036;SDS011;36325;51.512;-0.382;2023-03-20T06:58:52;28.15;;;5.32;;
30036;SDS011;36325;51.512;-0.382;2023-03-20T07:01:20;25.95;;;5.80;;
30036;SDS011;36325;51.512;-0.382;2023-03-20T07:03:49;25.23;;;8.63;;
30036;SDS011;36325;51.512;-0.382;2023-03-20T07:06:22;28.58;;;5.93;;
30036;SDS011;36325;51.512;-0.382;2023-03-20T07:08:50;36.17;;;8.18;;
30036;SDS011;36325;51.512;-0.382;2023-03-20T07:11:19;28.38;;;7.43;;
30036;SDS011;36325;51.512;-0.382;2023-03-20T07:13:47;25.45;;;7.05;;
30036;SDS011;36325;51.512;-0.382;2023-03-20T07:16:54;29.25;;;7.53;;
30036;SDS011;36325;51.512;-0.382;2023-03-20T07:19:22;31.30;;;7.93;;
30036;SDS011;36325;51.512;-0.382;2023-03-20T07:21:54;33.42;;;8.65;;
30036;SDS011;36325;51.512;-0.382;2023-03-20T07:24:32;31.25;;;6.82;;
30036;SDS011;36325;51.512;-0.382;2023-03-20T07:27:00;28.48;;;7.00;;
30036;SDS011;36325;51.512;-0.382;2023-03-20T07:29:29;22.55;;;7.00;;
30036;SDS011;36325;51.512;-0.382;2023-03-20T07:31:56;29.92;;;8.35;;
30036;SDS011;36325;51.512;-0.382;2023-03-20T07:34:31;34.25;;;9.27;;
30036;SDS011;36325;51.512;-0.382;2023-03-20T07:36:59;30.95;;;7.78;;
30036;SDS011;36325;51.512;-0.382;2023-03-20T07:39:29;29.40;;;8.10;;
30036;SDS011;36325;51.512;-0.382;2023-03-20T07:42:19;29.33;;;8.48;;
30036;SDS011;36325;51.512;-0.382;2023-03-20T07:44:56;28.38;;;8.57;;
30036;SDS011;36325;51.512;-0.382;2023-03-20T07:47:24;23.50;;;8.18;;
30036;SDS011;36325;51.512;-0.382;2023-03-20T07:49:51;30.80;;;8.98;;
30036;SDS011;36325;51.512;-0.382;2023-03-20T07:52:19;43.13;;;10.27;;
30036;SDS011;36325;51.512;-0.382;2023-03-20T07:54:46;24.83;;;8.32;;
30036;SDS011;36325;51.512;-0.382;2023-03-20T07:57:16;38.13;;;9.52;;
30036;SDS011;36325;51.512;-0.382;2023-03-20T07:59:44;22.13;;;6.72;;
30036;SDS011;36325;51.512;-0.382;2023-03-20T08:02:15;19.10;;;7.22;;
30036;SDS011;36325;51.512;-0.382;2023-03-20T08:04:43;26.13;;;6.70;;
30036;SDS011;36325;51.512;-0.382;2023-03-20T08:07:11;23.77;;;8.52;;
30036;SDS011;36325;51.512;-0.382;2023-03-20T08:09:38;26.23;;;9.20;;
30036;SDS011;36325;51.512;-0.382;2023-03-20T08:12:06;26.75;;;9.43;;
30036;SDS011;36325;51.512;-0.382;2023-03-20T08:14:33;32.50;;;10.18;;
30036;SDS011;36325;51.512;-0.382;2023-03-20T08:17:01;22.88;;;9.00;;
30036;SDS011;36325;51.512;-0.382;2023-03-20T08:19:40;24.23;;;7.82;;
30036;SDS011;36325;51.512;-0.382;2023-03-20T08:22:07;22.23;;;8.30;;
30036;SDS011;36325;51.512;-0.382;2023-03-20T08:24:35;25.77;;;8.70;;
30036;SDS011;36325;51.512;-0.382;2023-03-20T08:27:03;17.58;;;7.25;;
30036;SDS011;36325;51.512;-0.382;2023-03-20T08:29:31;23.40;;;8.27;;
30036;SDS011;36325;51.512;-0.382;2023-03-20T08:31:58;21.17;;;7.90;;
30036;SDS011;36325;51.512;-0.382;2023-03-20T08:34:25;24.20;;;8.30;;
30036;SDS011;36325;51.512;-0.382;2023-03-20T08:36:52;24.85;;;7.82;;
30036;SDS011;36325;51.512;-0.382;2023-03-20T08:39:20;20.27;;;8.90;;
30036;SDS011;36325;51.512;-0.382;2023-03-20T08:41:48;22.15;;;6.68;;
30036;SDS011;36325;51.512;-0.382;2023-03-20T08:44:15;23.70;;;9.45;;
30036;SDS011;36325;51.512;-0.382;2023-03-20T08:46:42;19.25;;;7.43;;
30036;SDS011;36325;51.512;-0.382;2023-03-20T08:49:12;20.58;;;8.15;;
30036;SDS011;36325;51.512;-0.382;2023-03-20T08:51:39;17.17;;;7.57;;
30036;SDS011;36325;51.512;-0.382;2023-03-20T08:54:06;14.23;;;6.20;;
30036;SDS011;36325;51.512;-0.382;2023-03-20T08:56:39;13.23;;;5.85;;
30036;SDS011;36325;51.512;-0.382;2023-03-20T08:59:06;16.25;;;6.45;;
30036;SDS011;36325;51.512;-0.382;2023-03-20T09:01:34;20.83;;;6.35;;
30036;SDS011;36325;51.512;-0.382;2023-03-20T09:04:14;25.40;;;7.05;;
30036;SDS011;36325;51.512;-0.382;2023-03-20T09:06:42;18.38;;;6.63;;
30036;SDS011;36325;51.512;-0.382;2023-03-20T09:09:09;21.85;;;6.40;;
30036;SDS011;36325;51.512;-0.382;2023-03-20T09:11:41;11.98;;;5.43;;
30036;SDS011;36325;51.512;-0.382;2023-03-20T09:14:09;25.75;;;5.93;;
30036;SDS011;36325;51.512;-0.382;2023-03-20T09:16:37;13.88;;;5.20;;
30036;SDS011;36325;51.512;-0.382;2023-03-20T09:19:04;15.60;;;5.35;;
30036;SDS011;36325;51.512;-0.382;2023-03-20T09:21:32;13.70;;;4.55;;
30036;SDS011;36325;51.512;-0.382;2023-03-20T09:23:59;10.05;;;4.07;;
30036;SDS011;36325;51.512;-0.382;2023-03-20T09:26:26;17.23;;;4.50;;
30036;SDS011;36325;51.512;-0.382;2023-03-20T09:28:54;10.73;;;4.05;;
30036;SDS011;36325;51.512;-0.382;2023-03-20T09:31:22;10.32;;;3.78;;
30036;SDS011;36325;51.512;-0.382;2023-03-20T09:33:49;11.77;;;3.35;;
30036;SDS011;36325;51.512;-0.382;2023-03-20T09:36:17;9.43;;;3.30;;
30036;SDS011;36325;51.512;-0.382;2023-03-20T09:38:44;14.43;;;3.13;;
30036;SDS011;36325;51.512;-0.382;2023-03-20T09:41:19;5.40;;;2.15;;
30036;SDS011;36325;51.512;-0.382;2023-03-20T09:52:51;5.40;;;2.60;;
30036;SDS011;36325;51.512;-0.382;2023-03-20T09:55:29;5.93;;;2.20;;
30036;SDS011;36325;51.512;-0.382;2023-03-20T09:58:02;5.20;;;1.60;;
30036;SDS011;36325;51.512;-0.382;2023-03-20T10:00:39;6.25;;;1.60;;
30036;SDS011;36325;51.512;-0.382;2023-03-20T10:05:57;5.07;;;1.38;;
30036;SDS011;36325;51.512;-0.382;2023-03-20T10:08:28;4.28;;;2.03;;
30036;SDS011;36325;51.512;-0.382;2023-03-20T10:11:09;7.80;;;1.50;;
30036;SDS011;36325;51.512;-0.382;2023-03-20T10:16:50;7.70;;;1.75;;
30036;SDS011;36325;51.512;-0.382;2023-03-20T10:19:28;5.70;;;3.10;;
30036;SDS011;36325;51.512;-0.382;2023-03-20T10:22:00;4.93;;;1.52;;
30036;SDS011;36325;51.512;-0.382;2023-03-20T10:24:51;6.68;;;1.45;;
30036;SDS011;36325;51.512;-0.382;2023-03-20T10:27:24;3.83;;;1.50;;
30036;SDS011;36325;51.512;-0.382;2023-03-20T10:37:35;2.30;;;1.10;;
30036;SDS011;36325;51.512;-0.382;2023-03-20T10:42:40;2.53;;;1.10;;
30036;SDS011;36325;51.512;-0.382;2023-03-20T10:45:32;4.88;;;1.05;;
30036;SDS011;36325;51.512;-0.382;2023-03-20T10:48:24;4.55;;;1.30;;
30036;SDS011;36325;51.512;-0.382;2023-03-20T10:50:59;1.98;;;1.02;;
30036;SDS011;36325;51.512;-0.382;2023-03-20T10:53:51;6.32;;;0.95;;
30036;SDS011;36325;51.512;-0.382;2023-03-20T10:56:40;2.92;;;1.55;;
30036;SDS011;36325;51.512;-0.382;2023-03-20T10:59:22;2.72;;;1.40;;
30036;SDS011;36325;51.512;-0.382;2023-03-20T11:01:55;18.58;;;3.00;;
30036;SDS011;36325;51.512;-0.382;2023-03-20T11:04:22;3.83;;;1.25;;
30036;SDS011;36325;51.512;-0.382;2023-03-20T11:09:42;8.40;;;1.50;;
30036;SDS011;36325;51.512;-0.382;2023-03-20T11:12:16;6.75;;;2.30;;
30036;SDS011;36325;51.512;-0.382;2023-03-20T11:14:45;4.97;;;2.25;;
30036;SDS011;36325;51.512;-0.382;2023-03-20T11:17:13;2.95;;;1.00;;
30036;SDS011;36325;51.512;-0.382;2023-03-20T11:19:42;3.90;;;1.42;;
30036;SDS011;36325;51.512;-0.382;2023-03-20T11:24:56;2.55;;;1.33;;
30036;SDS011;36325;51.512;-0.382;2023-03-20T11:27:28;5.38;;;1.73;;
30036;SDS011;36325;51.512;-0.382;2023-03-20T11:29:57;3.25;;;1.50;;
30036;SDS011;36325;51.512;-0.382;2023-03-20T11:35:29;8.63;;;2.60;;
30036;SDS011;36325;51.512;-0.382;2023-03-20T11:38:08;10.65;;;2.00;;
30036;SDS011;36325;51.512;-0.382;2023-03-20T11:40:41;4.88;;;2.03;;
30036;SDS011;36325;51.512;-0.382;2023-03-20T11:43:13;4.90;;;1.60;;
30036;SDS011;36325;51.512;-0.382;2023-03-20T11:45:45;4.57;;;1.42;;
30036;SDS011;36325;51.512;-0.382;2023-03-20T11:48:20;7.80;;;1.57;;
30036;SDS011;36325;51.512;-0.382;2023-03-20T11:51:03;7.10;;;1.67;;
30036;SDS011;36325;51.512;-0.382;2023-03-20T11:56:03;10.85;;;2.42;;
30036;SDS011;36325;51.512;-0.382;2023-03-20T11:58:35;4.53;;;1.65;;
30036;SDS011;36325;51.512;-0.382;2023-03-20T12:01:11;2.78;;;1.30;;
30036;SDS011;36325;51.512;-0.382;2023-03-20T12:06:45;5.85;;;1.30;;
30036;SDS011;36325;51.512;-0.382;2023-03-20T12:12:06;3.90;;;1.08;;
30036;SDS011;36325;51.512;-0.382;2023-03-20T12:14:52;1.67;;;1.13;;
30036;SDS011;36325;51.512;-0.382;2023-03-20T12:17:33;16.13;;;2.45;;
30036;SDS011;36325;51.512;-0.382;2023-03-20T12:20:10;6.85;;;1.55;;
30036;SDS011;36325;51.512;-0.382;2023-03-20T12:25:46;2.55;;;1.50;;
30036;SDS011;36325;51.512;-0.382;2023-03-20T12:36:34;1.13;;;0.68;;
30036;SDS011;36325;51.512;-0.382;2023-03-20T12:39:05;1.58;;;0.77;;
30036;SDS011;36325;51.512;-0.382;2023-03-20T12:41:46;29.33;;;2.50;;
30036;SDS011;36325;51.512;-0.382;2023-03-20T12:49:56;2.03;;;1.10;;
30036;SDS011;36325;51.512;-0.382;2023-03-20T12:52:52;1.90;;;0.90;;
30036;SDS011;36325;51.512;-0.382;2023-03-20T13:01:14;2.10;;;1.08;;
30036;SDS011;36325;51.512;-0.382;2023-03-20T13:06:40;4.45;;;0.73;;
30036;SDS011;36325;51.512;-0.382;2023-03-20T13:15:01;4.00;;;1.40;;
30036;SDS011;36325;51.512;-0.382;2023-03-20T13:28:21;3.13;;;0.90;;
30036;SDS011;36325;51.512;-0.382;2023-03-20T13:31:04;6.78;;;1.73;;
30036;SDS011;36325;51.512;-0.382;2023-03-20T13:39:34;5.95;;;2.35;;
30036;SDS011;36325;51.512;-0.382;2023-03-20T13:42:07;4.15;;;1.98;;
30036;SDS011;36325;51.512;-0.382;2023-03-20T13:44:40;6.63;;;2.05;;
30036;SDS011;36325;51.512;-0.382;2023-03-20T13:47:11;5.40;;;1.40;;
30036;SDS011;36325;51.512;-0.382;2023-03-20T13:49:51;4.32;;;2.22;;
30036;SDS011;36325;51.512;-0.382;2023-03-20T13:52:41;5.72;;;2.60;;
30036;SDS011;36325;51.512;-0.382;2023-03-20T13:55:20;4.55;;;1.80;;
30036;SDS011;36325;51.512;-0.382;2023-03-20T14:03:48;5.65;;;1.77;;
30036;SDS011;36325;51.512;-0.382;2023-03-20T14:08:57;3.30;;;1.13;;
30036;SDS011;36325;51.512;-0.382;2023-03-20T14:11:27;1.48;;;0.90;;
30036;SDS011;36325;51.512;-0.382;2023-03-20T14:14:17;3.20;;;1.13;;
30036;SDS011;36325;51.512;-0.382;2023-03-20T14:17:00;2.92;;;1.20;;
30036;SDS011;36325;51.512;-0.382;2023-03-20T14:19:38;5.55;;;1.60;;
30036;SDS011;36325;51.512;-0.382;2023-03-20T14:22:06;2.30;;;1.23;;
30036;SDS011;36325;51.512;-0.382;2023-03-20T14:24:44;6.03;;;1.80;;
30036;SDS011;36325;51.512;-0.382;2023-03-20T14:27:20;2.65;;;1.55;;
30036;SDS011;36325;51.512;-0.382;2023-03-20T14:32:58;3.08;;;1.35;;
30036;SDS011;36325;51.512;-0.382;2023-03-20T14:35:50;2.45;;;1.27;;
30036;SDS011;36325;51.512;-0.382;2023-03-20T14:38:58;1.67;;;1.27;;
30036;SDS011;36325;51.512;-0.382;2023-03-20T14:57:47;3.38;;;1.52;;
30036;SDS011;36325;51.512;-0.382;2023-03-20T15:00:23;6.20;;;1.88;;
30036;SDS011;36325;51.512;-0.382;2023-03-20T15:05:31;5.10;;;1.65;;
30036;SDS011;36325;51.512;-0.382;2023-03-20T15:08:19;4.95;;;1.45;;
30036;SDS011;36325;51.512;-0.382;2023-03-20T15:10:54;2.40;;;1.40;;
30036;SDS011;36325;51.512;-0.382;2023-03-20T15:13:25;5.07;;;1.42;;
30036;SDS011;36325;51.512;-0.382;2023-03-20T15:15:54;1.42;;;0.95;;
30036;SDS011;36325;51.512;-0.382;2023-03-20T15:18:34;2.25;;;1.15;;
30036;SDS011;36325;51.512;-0.382;2023-03-20T15:21:17;3.22;;;1.20;;
30036;SDS011;36325;51.512;-0.382;2023-03-20T15:23:46;4.25;;;1.55;;
30036;SDS011;36325;51.512;-0.382;2023-03-20T15:26:15;1.60;;;1.30;;
30036;SDS011;36325;51.512;-0.382;2023-03-20T15:28:44;2.30;;;1.45;;
30036;SDS011;36325;51.512;-0.382;2023-03-20T15:34:38;3.10;;;1.55;;
30036;SDS011;36325;51.512;-0.382;2023-03-20T15:37:09;3.72;;;1.90;;
30036;SDS011;36325;51.512;-0.382;2023-03-20T15:39:46;2.78;;;1.98;;
30036;SDS011;36325;51.512;-0.382;2023-03-20T15:42:15;3.25;;;2.05;;
30036;SDS011;36325;51.512;-0.382;2023-03-20T15:44:46;29.38;;;3.65;;
30036;SDS011;36325;51.512;-0.382;2023-03-20T15:47:16;3.22;;;2.22;;
30036;SDS011;36325;51.512;-0.382;2023-03-20T15:49:49;5.38;;;2.28;;
30036;SDS011;36325;51.512;-0.382;2023-03-20T15:54:52;5.75;;;2.75;;
30036;SDS011;36325;51.512;-0.382;2023-03-20T15:57:28;4.05;;;2.00;;
30036;SDS011;36325;51.512;-0.382;2023-03-20T16:00:12;4.22;;;2.40;;
30036;SDS011;36325;51.512;-0.382;2023-03-20T16:02:44;5.93;;;2.72;;
30036;SDS011;36325;51.512;-0.382;2023-03-20T16:05:14;3.22;;;2.03;;
30036;SDS011;36325;51.512;-0.382;2023-03-20T16:07:43;6.15;;;1.95;;
30036;SDS011;36325;51.512;-0.382;2023-03-20T16:13:11;5.68;;;2.03;;
30036;SDS011;36325;51.512;-0.382;2023-03-20T16:15:42;3.90;;;2.42;;
30036;SDS011;36325;51.512;-0.382;2023-03-20T16:18:13;2.35;;;1.95;;
30036;SDS011;36325;51.512;-0.382;2023-03-20T16:20:53;4.65;;;2.45;;
30036;SDS011;36325;51.512;-0.382;2023-03-20T16:23:34;2.95;;;2.17;;
30036;SDS011;36325;51.512;-0.382;2023-03-20T16:26:07;4.57;;;2.53;;
30036;SDS011;36325;51.512;-0.382;2023-03-20T16:28:41;5.05;;;2.90;;
30036;SDS011;36325;51.512;-0.382;2023-03-20T16:31:12;4.43;;;2.80;;
30036;SDS011;36325;51.512;-0.382;2023-03-20T16:36:14;3.50;;;2.40;;
30036;SDS011;36325;51.512;-0.382;2023-03-20T16:38:56;8.98;;;3.90;;
30036;SDS011;36325;51.512;-0.382;2023-03-20T16:41:33;6.75;;;3.20;;
30036;SDS011;36325;51.512;-0.382;2023-03-20T16:44:15;6.82;;;4.25;;
30036;SDS011;36325;51.512;-0.382;2023-03-20T16:47:01;5.00;;;3.10;;
30036;SDS011;36325;51.512;-0.382;2023-03-20T16:52:19;5.70;;;3.58;;
30036;SDS011;36325;51.512;-0.382;2023-03-20T16:54:56;7.25;;;3.35;;
30036;SDS011;36325;51.512;-0.382;2023-03-20T16:57:24;5.15;;;3.33;;
30036;SDS011;36325;51.512;-0.382;2023-03-20T16:59:55;3.65;;;2.40;;
30036;SDS011;36325;51.512;-0.382;2023-03-20T17:02:29;14.20;;;3.30;;
30036;SDS011;36325;51.512;-0.382;2023-03-20T17:05:02;5.85;;;2.75;;
30036;SDS011;36325;51.512;-0.382;2023-03-20T17:07:32;2.33;;;1.58;;
30036;SDS011;36325;51.512;-0.382;2023-03-20T17:12:46;3.47;;;2.30;;
30036;SDS011;36325;51.512;-0.382;2023-03-20T17:15:17;3.78;;;2.40;;
30036;SDS011;36325;51.512;-0.382;2023-03-20T17:21:24;5.40;;;3.08;;
30036;SDS011;36325;51.512;-0.382;2023-03-20T17:23:52;8.80;;;3.58;;
30036;SDS011;36325;51.512;-0.382;2023-03-20T17:26:19;5.57;;;3.63;;
30036;SDS011;36325;51.512;-0.382;2023-03-20T17:28:46;6.32;;;2.80;;
30036;SDS011;36325;51.512;-0.382;2023-03-20T17:31:20;4.18;;;2.78;;
30036;SDS011;36325;51.512;-0.382;2023-03-20T17:33:47;4.68;;;3.03;;
30036;SDS011;36325;51.512;-0.382;2023-03-20T17:39:18;7.20;;;3.83;;
30036;SDS011;36325;51.512;-0.382;2023-03-20T17:41:48;9.90;;;3.50;;
30036;SDS011;36325;51.512;-0.382;2023-03-20T17:44:15;4.95;;;2.78;;
30036;SDS011;36325;51.512;-0.382;2023-03-20T17:46:42;7.40;;;3.72;;
30036;SDS011;36325;51.512;-0.382;2023-03-20T17:49:23;10.60;;;4.35;;
30036;SDS011;36325;51.512;-0.382;2023-03-20T17:51:53;6.53;;;3.60;;
30036;SDS011;36325;51.512;-0.382;2023-03-20T17:54:21;8.52;;;4.82;;
30036;SDS011;36325;51.512;-0.382;2023-03-20T17:56:48;9.88;;;4.10;;
30036;SDS011;36325;51.512;-0.382;2023-03-20T17:59:15;11.85;;;4.25;;
30036;SDS011;36325;51.512;-0.382;2023-03-20T18:01:43;8.15;;;4.88;;
30036;SDS011;36325;51.512;-0.382;2023-03-20T18:04:10;8.35;;;4.88;;
30036;SDS011;36325;51.512;-0.382;2023-03-20T18:06:38;6.65;;;4.60;;
30036;SDS011;36325;51.512;-0.382;2023-03-20T18:09:05;10.98;;;4.30;;
30036;SDS011;36325;51.512;-0.382;2023-03-20T18:11:34;11.13;;;4.18;;
30036;SDS011;36325;51.512;-0.382;2023-03-20T18:14:02;9.85;;;3.78;;